sensor_id;sensor_type;location;lat;lon;timestamp;P1;durP1;ratioP1;P2;durP2;ratioP2
17993;SDS011;9122;48.406;9.984;2023-03-01T00:00:06;18.13;;;15.27;;
17993;SDS011;9122;48.406;9.984;2023-03-01T00:02:51;19.40;;;15.80;;
17993;SDS011;9122;48.406;9.984;2023-03-01T00:05:35;18.17;;;14.50;;
17993;SDS011;9122;48.406;9.984;2023-03-01T00:08:20;18.50;;;15.73;;
17993;SDS011;9122;48.406;9.984;2023-03-01T00:13:59;19.47;;;15.67;;
17993;SDS011;9122;48.406;9.984;2023-03-01T00:16:45;17.73;;;14.93;;
17993;SDS011;9122;48.406;9.984;2023-03-01T00:19:29;19.97;;;15.03;;
17993;SDS011;9122;48.406;9.984;2023-03-01T00:22:16;18.73;;;15.43;;
17993;SDS011;9122;48.406;9.984;2023-03-01T00:25:00;22.37;;;16.10;;
17993;SDS011;9122;48.406;9.984;2023-03-01T00:27:46;18.83;;;16.77;;
17993;SDS011;9122;48.406;9.984;2023-03-01T00:30:32;18.37;;;16.13;;
17993;SDS011;9122;48.406;9.984;2023-03-01T00:33:17;20.67;;;16.17;;
17993;SDS011;9122;48.406;9.984;2023-03-01T00:36:02;19.37;;;16.40;;
17993;SDS011;9122;48.406;9.984;2023-03-01T00:38:47;19.93;;;15.77;;
17993;SDS011;9122;48.406;9.984;2023-03-01T00:41:31;19.73;;;16.23;;
17993;SDS011;9122;48.406;9.984;2023-03-01T00:44:19;20.03;;;15.63;;
17993;SDS011;9122;48.406;9.984;2023-03-01T00:47:06;24.13;;;17.50;;
17993;SDS011;9122;48.406;9.984;2023-03-01T00:49:53;20.23;;;16.30;;
17993;SDS011;9122;48.406;9.984;2023-03-01T00:52:37;24.73;;;17.40;;
17993;SDS011;9122;48.406;9.984;2023-03-01T00:55:22;20.83;;;16.43;;
17993;SDS011;9122;48.406;9.984;2023-03-01T00:58:07;21.00;;;16.57;;
17993;SDS011;9122;48.406;9.984;2023-03-01T01:00:52;24.83;;;17.67;;
17993;SDS011;9122;48.406;9.984;2023-03-01T01:03:36;23.73;;;17.20;;
17993;SDS011;9122;48.406;9.984;2023-03-01T01:06:22;22.27;;;17.60;;
17993;SDS011;9122;48.406;9.984;2023-03-01T01:09:07;19.60;;;16.53;;
17993;SDS011;9122;48.406;9.984;2023-03-01T01:11:52;19.63;;;16.60;;
17993;SDS011;9122;48.406;9.984;2023-03-01T01:14:37;21.67;;;17.50;;
17993;SDS011;9122;48.406;9.984;2023-03-01T01:17:21;23.17;;;17.50;;
17993;SDS011;9122;48.406;9.984;2023-03-01T01:20:06;21.07;;;17.50;;
17993;SDS011;9122;48.406;9.984;2023-03-01T01:22:51;21.97;;;17.43;;
17993;SDS011;9122;48.406;9.984;2023-03-01T01:25:36;22.30;;;17.53;;
17993;SDS011;9122;48.406;9.984;2023-03-01T01:28:21;22.70;;;18.03;;
17993;SDS011;9122;48.406;9.984;2023-03-01T01:31:05;22.43;;;17.50;;
17993;SDS011;9122;48.406;9.984;2023-03-01T01:33:50;23.20;;;17.07;;
17993;SDS011;9122;48.406;9.984;2023-03-01T01:36:38;20.30;;;16.67;;
17993;SDS011;9122;48.406;9.984;2023-03-01T01:39:22;19.03;;;16.37;;
17993;SDS011;9122;48.406;9.984;2023-03-01T01:42:17;22.90;;;17.57;;
17993;SDS011;9122;48.406;9.984;2023-03-01T01:48:12;23.33;;;18.07;;
17993;SDS011;9122;48.406;9.984;2023-03-01T01:51:03;22.43;;;17.53;;
17993;SDS011;9122;48.406;9.984;2023-03-01T01:53:53;25.10;;;19.03;;
17993;SDS011;9122;48.406;9.984;2023-03-01T01:56:43;23.07;;;17.23;;
17993;SDS011;9122;48.406;9.984;2023-03-01T01:59:31;22.07;;;17.63;;
17993;SDS011;9122;48.406;9.984;2023-03-01T02:02:20;23.03;;;17.53;;
17993;SDS011;9122;48.406;9.984;2023-03-01T02:05:13;24.63;;;18.13;;
17993;SDS011;9122;48.406;9.984;2023-03-01T02:08:04;24.77;;;18.13;;
17993;SDS011;9122;48.406;9.984;2023-03-01T02:10:51;23.50;;;17.80;;
17993;SDS011;9122;48.406;9.984;2023-03-01T02:13:38;22.87;;;17.73;;
17993;SDS011;9122;48.406;9.984;2023-03-01T02:16:23;25.53;;;18.37;;
17993;SDS011;9122;48.406;9.984;2023-03-01T02:19:19;21.67;;;17.20;;
17993;SDS011;9122;48.406;9.984;2023-03-01T02:22:24;24.80;;;18.30;;
17993;SDS011;9122;48.406;9.984;2023-03-01T02:30:55;23.60;;;18.17;;
17993;SDS011;9122;48.406;9.984;2023-03-01T02:33:59;25.37;;;18.10;;
17993;SDS011;9122;48.406;9.984;2023-03-01T02:39:44;25.03;;;18.33;;
17993;SDS011;9122;48.406;9.984;2023-03-01T02:42:36;21.27;;;17.93;;
17993;SDS011;9122;48.406;9.984;2023-03-01T02:45:28;21.27;;;17.40;;
17993;SDS011;9122;48.406;9.984;2023-03-01T02:48:12;23.67;;;18.37;;
17993;SDS011;9122;48.406;9.984;2023-03-01T02:57:09;27.07;;;19.20;;
17993;SDS011;9122;48.406;9.984;2023-03-01T02:59:54;25.63;;;19.67;;
17993;SDS011;9122;48.406;9.984;2023-03-01T03:02:40;21.83;;;17.33;;
17993;SDS011;9122;48.406;9.984;2023-03-01T03:05:26;28.17;;;19.93;;
17993;SDS011;9122;48.406;9.984;2023-03-01T03:08:12;25.00;;;18.53;;
17993;SDS011;9122;48.406;9.984;2023-03-01T03:11:00;24.37;;;17.70;;
17993;SDS011;9122;48.406;9.984;2023-03-01T03:13:44;21.87;;;17.80;;
17993;SDS011;9122;48.406;9.984;2023-03-01T03:16:31;21.57;;;18.10;;
17993;SDS011;9122;48.406;9.984;2023-03-01T03:19:16;23.83;;;18.23;;
17993;SDS011;9122;48.406;9.984;2023-03-01T03:22:02;22.13;;;17.70;;
17993;SDS011;9122;48.406;9.984;2023-03-01T03:24:50;21.87;;;17.13;;
17993;SDS011;9122;48.406;9.984;2023-03-01T03:27:38;22.37;;;17.63;;
17993;SDS011;9122;48.406;9.984;2023-03-01T03:30:27;25.10;;;18.20;;
17993;SDS011;9122;48.406;9.984;2023-03-01T03:33:13;23.23;;;18.10;;
17993;SDS011;9122;48.406;9.984;2023-03-01T03:35:57;22.97;;;17.80;;
17993;SDS011;9122;48.406;9.984;2023-03-01T03:38:42;23.17;;;17.57;;
17993;SDS011;9122;48.406;9.984;2023-03-01T03:41:27;24.10;;;18.70;;
17993;SDS011;9122;48.406;9.984;2023-03-01T03:44:17;22.47;;;17.83;;
17993;SDS011;9122;48.406;9.984;2023-03-01T03:47:02;27.57;;;20.23;;
17993;SDS011;9122;48.406;9.984;2023-03-01T03:49:47;21.40;;;17.50;;
17993;SDS011;9122;48.406;9.984;2023-03-01T03:52:31;23.10;;;17.40;;
17993;SDS011;9122;48.406;9.984;2023-03-01T03:55:16;22.43;;;17.60;;
17993;SDS011;9122;48.406;9.984;2023-03-01T03:58:02;23.40;;;18.17;;
17993;SDS011;9122;48.406;9.984;2023-03-01T04:00:55;22.00;;;17.13;;
17993;SDS011;9122;48.406;9.984;2023-03-01T04:03:40;24.67;;;18.10;;
17993;SDS011;9122;48.406;9.984;2023-03-01T04:06:27;24.00;;;17.07;;
17993;SDS011;9122;48.406;9.984;2023-03-01T04:09:12;25.73;;;18.83;;
17993;SDS011;9122;48.406;9.984;2023-03-01T04:11:57;22.17;;;17.23;;
17993;SDS011;9122;48.406;9.984;2023-03-01T04:14:41;23.60;;;18.00;;
17993;SDS011;9122;48.406;9.984;2023-03-01T04:17:26;25.30;;;17.97;;
17993;SDS011;9122;48.406;9.984;2023-03-01T04:20:11;24.30;;;18.50;;
17993;SDS011;9122;48.406;9.984;2023-03-01T04:23:02;22.30;;;17.33;;
17993;SDS011;9122;48.406;9.984;2023-03-01T04:25:55;24.80;;;18.90;;
17993;SDS011;9122;48.406;9.984;2023-03-01T04:28:42;25.60;;;18.70;;
17993;SDS011;9122;48.406;9.984;2023-03-01T04:31:28;22.80;;;18.13;;
17993;SDS011;9122;48.406;9.984;2023-03-01T04:34:13;23.77;;;18.27;;
17993;SDS011;9122;48.406;9.984;2023-03-01T04:36:58;23.23;;;17.83;;
17993;SDS011;9122;48.406;9.984;2023-03-01T04:39:42;24.87;;;18.37;;
17993;SDS011;9122;48.406;9.984;2023-03-01T04:42:32;23.07;;;18.23;;
17993;SDS011;9122;48.406;9.984;2023-03-01T04:45:17;21.40;;;16.77;;
17993;SDS011;9122;48.406;9.984;2023-03-01T04:48:02;23.53;;;18.17;;
17993;SDS011;9122;48.406;9.984;2023-03-01T04:50:47;20.43;;;17.47;;
17993;SDS011;9122;48.406;9.984;2023-03-01T04:53:31;22.50;;;18.30;;
17993;SDS011;9122;48.406;9.984;2023-03-01T04:56:19;22.90;;;18.60;;
17993;SDS011;9122;48.406;9.984;2023-03-01T04:59:06;24.10;;;18.60;;
17993;SDS011;9122;48.406;9.984;2023-03-01T05:01:52;25.53;;;18.20;;
17993;SDS011;9122;48.406;9.984;2023-03-01T05:04:40;22.97;;;18.30;;
17993;SDS011;9122;48.406;9.984;2023-03-01T05:07:25;24.37;;;19.07;;
17993;SDS011;9122;48.406;9.984;2023-03-01T05:10:10;25.20;;;18.83;;
17993;SDS011;9122;48.406;9.984;2023-03-01T05:12:55;23.63;;;19.00;;
17993;SDS011;9122;48.406;9.984;2023-03-01T05:15:41;22.60;;;17.90;;
17993;SDS011;9122;48.406;9.984;2023-03-01T05:18:29;23.80;;;17.53;;
17993;SDS011;9122;48.406;9.984;2023-03-01T05:21:16;24.73;;;18.53;;
17993;SDS011;9122;48.406;9.984;2023-03-01T05:24:01;23.97;;;18.43;;
17993;SDS011;9122;48.406;9.984;2023-03-01T05:26:46;26.63;;;19.33;;
17993;SDS011;9122;48.406;9.984;2023-03-01T05:29:32;25.03;;;19.10;;
17993;SDS011;9122;48.406;9.984;2023-03-01T05:32:18;25.07;;;19.57;;
17993;SDS011;9122;48.406;9.984;2023-03-01T05:35:03;25.03;;;19.67;;
17993;SDS011;9122;48.406;9.984;2023-03-01T05:37:48;24.50;;;18.60;;
17993;SDS011;9122;48.406;9.984;2023-03-01T05:40:33;23.90;;;18.83;;
17993;SDS011;9122;48.406;9.984;2023-03-01T05:43:22;27.27;;;19.40;;
17993;SDS011;9122;48.406;9.984;2023-03-01T05:46:06;25.27;;;19.40;;
17993;SDS011;9122;48.406;9.984;2023-03-01T05:48:55;26.20;;;18.57;;
17993;SDS011;9122;48.406;9.984;2023-03-01T05:51:41;32.13;;;18.50;;
17993;SDS011;9122;48.406;9.984;2023-03-01T05:54:26;25.50;;;18.77;;
17993;SDS011;9122;48.406;9.984;2023-03-01T05:57:11;26.00;;;19.90;;
17993;SDS011;9122;48.406;9.984;2023-03-01T05:59:56;25.77;;;20.90;;
17993;SDS011;9122;48.406;9.984;2023-03-01T06:02:40;23.43;;;18.93;;
17993;SDS011;9122;48.406;9.984;2023-03-01T06:05:25;26.03;;;19.20;;
17993;SDS011;9122;48.406;9.984;2023-03-01T06:08:12;27.00;;;18.93;;
17993;SDS011;9122;48.406;9.984;2023-03-01T06:10:56;26.87;;;20.37;;
17993;SDS011;9122;48.406;9.984;2023-03-01T06:13:41;25.20;;;19.53;;
17993;SDS011;9122;48.406;9.984;2023-03-01T06:16:27;25.90;;;20.30;;
17993;SDS011;9122;48.406;9.984;2023-03-01T06:19:11;25.23;;;19.73;;
17993;SDS011;9122;48.406;9.984;2023-03-01T06:21:58;26.10;;;19.40;;
17993;SDS011;9122;48.406;9.984;2023-03-01T06:24:43;27.13;;;19.07;;
17993;SDS011;9122;48.406;9.984;2023-03-01T06:27:30;25.13;;;18.90;;
17993;SDS011;9122;48.406;9.984;2023-03-01T06:30:17;24.93;;;19.50;;
17993;SDS011;9122;48.406;9.984;2023-03-01T06:33:05;27.80;;;20.07;;
17993;SDS011;9122;48.406;9.984;2023-03-01T06:35:50;25.37;;;19.47;;
17993;SDS011;9122;48.406;9.984;2023-03-01T06:38:35;25.40;;;19.00;;
17993;SDS011;9122;48.406;9.984;2023-03-01T06:41:20;25.37;;;18.13;;
17993;SDS011;9122;48.406;9.984;2023-03-01T06:44:04;28.03;;;20.63;;
17993;SDS011;9122;48.406;9.984;2023-03-01T06:46:49;29.07;;;20.37;;
17993;SDS011;9122;48.406;9.984;2023-03-01T06:49:33;26.57;;;19.80;;
17993;SDS011;9122;48.406;9.984;2023-03-01T06:52:18;26.80;;;20.93;;
17993;SDS011;9122;48.406;9.984;2023-03-01T06:55:03;25.90;;;19.70;;
17993;SDS011;9122;48.406;9.984;2023-03-01T06:57:48;25.57;;;19.63;;
17993;SDS011;9122;48.406;9.984;2023-03-01T07:00:32;25.47;;;19.90;;
17993;SDS011;9122;48.406;9.984;2023-03-01T07:03:17;22.50;;;19.27;;
17993;SDS011;9122;48.406;9.984;2023-03-01T07:06:04;25.03;;;19.40;;
17993;SDS011;9122;48.406;9.984;2023-03-01T07:08:49;23.43;;;18.00;;
17993;SDS011;9122;48.406;9.984;2023-03-01T07:11:34;23.13;;;19.60;;
17993;SDS011;9122;48.406;9.984;2023-03-01T07:14:18;25.57;;;18.80;;
17993;SDS011;9122;48.406;9.984;2023-03-01T07:17:03;27.50;;;20.03;;
17993;SDS011;9122;48.406;9.984;2023-03-01T07:19:47;26.57;;;19.47;;
17993;SDS011;9122;48.406;9.984;2023-03-01T07:22:32;25.33;;;19.03;;
17993;SDS011;9122;48.406;9.984;2023-03-01T07:25:16;23.47;;;18.80;;
17993;SDS011;9122;48.406;9.984;2023-03-01T07:28:01;24.53;;;19.10;;
17993;SDS011;9122;48.406;9.984;2023-03-01T07:31:07;24.37;;;18.77;;
17993;SDS011;9122;48.406;9.984;2023-03-01T07:34:13;21.17;;;18.33;;
17993;SDS011;9122;48.406;9.984;2023-03-01T07:37:00;21.87;;;19.13;;
17993;SDS011;9122;48.406;9.984;2023-03-01T07:39:47;26.97;;;19.77;;
17993;SDS011;9122;48.406;9.984;2023-03-01T07:42:32;21.57;;;18.13;;
17993;SDS011;9122;48.406;9.984;2023-03-01T07:45:16;27.13;;;18.57;;
17993;SDS011;9122;48.406;9.984;2023-03-01T07:48:01;22.53;;;18.63;;
17993;SDS011;9122;48.406;9.984;2023-03-01T07:50:49;25.83;;;17.83;;
17993;SDS011;9122;48.406;9.984;2023-03-01T07:53:34;24.77;;;18.17;;
17993;SDS011;9122;48.406;9.984;2023-03-01T07:56:18;20.23;;;15.47;;
17993;SDS011;9122;48.406;9.984;2023-03-01T07:59:04;25.60;;;18.73;;
17993;SDS011;9122;48.406;9.984;2023-03-01T08:01:49;25.63;;;19.40;;
17993;SDS011;9122;48.406;9.984;2023-03-01T08:04:33;26.00;;;18.50;;
17993;SDS011;9122;48.406;9.984;2023-03-01T08:07:20;22.33;;;18.53;;
17993;SDS011;9122;48.406;9.984;2023-03-01T08:10:06;26.83;;;19.63;;
17993;SDS011;9122;48.406;9.984;2023-03-01T08:12:52;24.80;;;19.60;;
17993;SDS011;9122;48.406;9.984;2023-03-01T08:15:36;28.20;;;19.83;;
17993;SDS011;9122;48.406;9.984;2023-03-01T08:18:23;25.77;;;19.43;;
17993;SDS011;9122;48.406;9.984;2023-03-01T08:21:13;28.03;;;19.97;;
17993;SDS011;9122;48.406;9.984;2023-03-01T08:23:58;24.27;;;20.17;;
17993;SDS011;9122;48.406;9.984;2023-03-01T08:26:43;26.10;;;19.30;;
17993;SDS011;9122;48.406;9.984;2023-03-01T08:29:28;27.40;;;20.57;;
17993;SDS011;9122;48.406;9.984;2023-03-01T08:32:15;24.83;;;19.43;;
17993;SDS011;9122;48.406;9.984;2023-03-01T08:35:02;24.77;;;18.17;;
17993;SDS011;9122;48.406;9.984;2023-03-01T08:37:46;25.33;;;19.37;;
17993;SDS011;9122;48.406;9.984;2023-03-01T08:40:31;24.40;;;19.30;;
17993;SDS011;9122;48.406;9.984;2023-03-01T08:43:16;22.07;;;18.33;;
17993;SDS011;9122;48.406;9.984;2023-03-01T08:46:01;23.17;;;18.43;;
17993;SDS011;9122;48.406;9.984;2023-03-01T08:48:45;28.93;;;20.40;;
17993;SDS011;9122;48.406;9.984;2023-03-01T08:51:30;26.00;;;20.03;;
17993;SDS011;9122;48.406;9.984;2023-03-01T08:54:17;25.50;;;20.90;;
17993;SDS011;9122;48.406;9.984;2023-03-01T08:57:03;25.03;;;18.40;;
17993;SDS011;9122;48.406;9.984;2023-03-01T08:59:47;24.27;;;19.10;;
17993;SDS011;9122;48.406;9.984;2023-03-01T09:02:32;25.87;;;18.63;;
17993;SDS011;9122;48.406;9.984;2023-03-01T09:05:17;29.77;;;21.87;;
17993;SDS011;9122;48.406;9.984;2023-03-01T09:08:02;26.10;;;20.53;;
17993;SDS011;9122;48.406;9.984;2023-03-01T09:10:46;24.60;;;19.17;;
17993;SDS011;9122;48.406;9.984;2023-03-01T09:13:31;24.83;;;18.93;;
17993;SDS011;9122;48.406;9.984;2023-03-01T09:16:16;27.80;;;20.40;;
17993;SDS011;9122;48.406;9.984;2023-03-01T09:19:03;26.67;;;19.03;;
17993;SDS011;9122;48.406;9.984;2023-03-01T09:21:48;25.07;;;19.33;;
17993;SDS011;9122;48.406;9.984;2023-03-01T09:24:39;25.37;;;19.17;;
17993;SDS011;9122;48.406;9.984;2023-03-01T09:27:26;27.10;;;20.43;;
17993;SDS011;9122;48.406;9.984;2023-03-01T09:30:22;28.00;;;20.57;;
17993;SDS011;9122;48.406;9.984;2023-03-01T09:33:08;29.33;;;19.87;;
17993;SDS011;9122;48.406;9.984;2023-03-01T09:36:02;28.00;;;20.47;;
17993;SDS011;9122;48.406;9.984;2023-03-01T09:38:50;31.63;;;21.30;;
17993;SDS011;9122;48.406;9.984;2023-03-01T09:41:44;27.13;;;21.13;;
17993;SDS011;9122;48.406;9.984;2023-03-01T09:44:54;25.57;;;20.87;;
17993;SDS011;9122;48.406;9.984;2023-03-01T09:47:41;25.33;;;19.53;;
17993;SDS011;9122;48.406;9.984;2023-03-01T09:50:32;29.87;;;20.40;;
17993;SDS011;9122;48.406;9.984;2023-03-01T09:53:23;26.30;;;19.57;;
17993;SDS011;9122;48.406;9.984;2023-03-01T10:05:05;29.80;;;20.87;;
17993;SDS011;9122;48.406;9.984;2023-03-01T10:11:24;28.57;;;21.93;;
17993;SDS011;9122;48.406;9.984;2023-03-01T10:23:01;28.77;;;20.27;;
17993;SDS011;9122;48.406;9.984;2023-03-01T10:31:49;24.23;;;18.57;;
17993;SDS011;9122;48.406;9.984;2023-03-01T10:34:35;26.70;;;19.97;;
17993;SDS011;9122;48.406;9.984;2023-03-01T10:37:20;32.80;;;20.80;;
17993;SDS011;9122;48.406;9.984;2023-03-01T10:40:07;28.40;;;21.20;;
17993;SDS011;9122;48.406;9.984;2023-03-01T10:42:53;28.30;;;21.33;;
17993;SDS011;9122;48.406;9.984;2023-03-01T10:45:43;28.57;;;22.03;;
17993;SDS011;9122;48.406;9.984;2023-03-01T10:48:27;25.80;;;20.80;;
17993;SDS011;9122;48.406;9.984;2023-03-01T10:51:17;30.73;;;21.70;;
17993;SDS011;9122;48.406;9.984;2023-03-01T10:54:04;27.73;;;20.67;;
17993;SDS011;9122;48.406;9.984;2023-03-01T10:57:02;27.67;;;21.03;;
17993;SDS011;9122;48.406;9.984;2023-03-01T10:59:48;24.97;;;19.33;;
17993;SDS011;9122;48.406;9.984;2023-03-01T11:03:01;26.57;;;21.30;;
17993;SDS011;9122;48.406;9.984;2023-03-01T11:05:56;27.10;;;20.97;;
17993;SDS011;9122;48.406;9.984;2023-03-01T11:08:49;30.33;;;22.07;;
17993;SDS011;9122;48.406;9.984;2023-03-01T11:11:34;26.70;;;20.60;;
17993;SDS011;9122;48.406;9.984;2023-03-01T11:14:26;25.00;;;21.17;;
17993;SDS011;9122;48.406;9.984;2023-03-01T11:20:19;29.30;;;20.67;;
17993;SDS011;9122;48.406;9.984;2023-03-01T11:23:11;27.33;;;20.77;;
17993;SDS011;9122;48.406;9.984;2023-03-01T11:26:07;25.40;;;21.03;;
17993;SDS011;9122;48.406;9.984;2023-03-01T11:28:53;29.30;;;22.80;;
17993;SDS011;9122;48.406;9.984;2023-03-01T11:31:44;28.13;;;21.07;;
17993;SDS011;9122;48.406;9.984;2023-03-01T11:40:47;24.87;;;19.03;;
17993;SDS011;9122;48.406;9.984;2023-03-01T11:43:50;29.47;;;20.60;;
17993;SDS011;9122;48.406;9.984;2023-03-01T11:52:42;23.83;;;18.50;;
17993;SDS011;9122;48.406;9.984;2023-03-01T12:02:07;25.83;;;19.73;;
17993;SDS011;9122;48.406;9.984;2023-03-01T12:17:16;24.30;;;20.27;;
17993;SDS011;9122;48.406;9.984;2023-03-01T12:29:25;27.07;;;19.83;;
17993;SDS011;9122;48.406;9.984;2023-03-01T12:38:48;23.33;;;19.00;;
17993;SDS011;9122;48.406;9.984;2023-03-01T12:50:54;28.23;;;21.27;;
17993;SDS011;9122;48.406;9.984;2023-03-01T12:53:47;25.57;;;19.83;;
17993;SDS011;9122;48.406;9.984;2023-03-01T12:56:34;25.67;;;19.87;;
17993;SDS011;9122;48.406;9.984;2023-03-01T12:59:24;23.97;;;19.70;;
17993;SDS011;9122;48.406;9.984;2023-03-01T13:02:26;22.90;;;18.77;;
17993;SDS011;9122;48.406;9.984;2023-03-01T13:05:19;23.73;;;18.63;;
17993;SDS011;9122;48.406;9.984;2023-03-01T13:08:17;23.23;;;18.83;;
17993;SDS011;9122;48.406;9.984;2023-03-01T13:11:21;23.93;;;20.00;;
17993;SDS011;9122;48.406;9.984;2023-03-01T13:17:07;22.77;;;18.70;;
17993;SDS011;9122;48.406;9.984;2023-03-01T13:20:16;23.57;;;19.43;;
17993;SDS011;9122;48.406;9.984;2023-03-01T13:23:04;27.60;;;19.43;;
17993;SDS011;9122;48.406;9.984;2023-03-01T13:26:02;23.00;;;18.33;;
17993;SDS011;9122;48.406;9.984;2023-03-01T13:28:52;21.83;;;18.73;;
17993;SDS011;9122;48.406;9.984;2023-03-01T13:37:37;26.80;;;19.83;;
17993;SDS011;9122;48.406;9.984;2023-03-01T13:46:22;22.53;;;18.20;;
17993;SDS011;9122;48.406;9.984;2023-03-01T13:49:14;23.30;;;18.13;;
17993;SDS011;9122;48.406;9.984;2023-03-01T13:52:02;24.53;;;18.80;;
17993;SDS011;9122;48.406;9.984;2023-03-01T13:54:46;25.30;;;19.57;;
17993;SDS011;9122;48.406;9.984;2023-03-01T13:57:34;23.80;;;18.07;;
17993;SDS011;9122;48.406;9.984;2023-03-01T14:00:32;22.67;;;17.90;;
17993;SDS011;9122;48.406;9.984;2023-03-01T14:03:19;23.07;;;18.33;;
17993;SDS011;9122;48.406;9.984;2023-03-01T14:06:14;21.27;;;17.23;;
17993;SDS011;9122;48.406;9.984;2023-03-01T14:09:20;24.57;;;18.33;;
17993;SDS011;9122;48.406;9.984;2023-03-01T14:15:17;22.33;;;18.13;;
17993;SDS011;9122;48.406;9.984;2023-03-01T14:18:29;22.03;;;17.30;;
17993;SDS011;9122;48.406;9.984;2023-03-01T14:21:39;20.10;;;17.07;;
17993;SDS011;9122;48.406;9.984;2023-03-01T14:24:32;20.50;;;16.47;;
17993;SDS011;9122;48.406;9.984;2023-03-01T14:27:25;21.50;;;17.90;;
17993;SDS011;9122;48.406;9.984;2023-03-01T14:30:19;21.70;;;17.20;;
17993;SDS011;9122;48.406;9.984;2023-03-01T14:36:25;22.17;;;17.73;;
17993;SDS011;9122;48.406;9.984;2023-03-01T14:39:23;21.90;;;16.47;;
17993;SDS011;9122;48.406;9.984;2023-03-01T14:42:10;18.60;;;15.47;;
17993;SDS011;9122;48.406;9.984;2023-03-01T14:44:57;21.97;;;18.43;;
17993;SDS011;9122;48.406;9.984;2023-03-01T14:47:43;21.03;;;16.23;;
17993;SDS011;9122;48.406;9.984;2023-03-01T14:50:32;21.03;;;16.80;;
17993;SDS011;9122;48.406;9.984;2023-03-01T14:53:20;19.73;;;16.57;;
17993;SDS011;9122;48.406;9.984;2023-03-01T14:56:14;20.07;;;16.27;;
17993;SDS011;9122;48.406;9.984;2023-03-01T14:59:01;22.13;;;16.13;;
17993;SDS011;9122;48.406;9.984;2023-03-01T15:01:45;20.37;;;16.37;;
17993;SDS011;9122;48.406;9.984;2023-03-01T15:04:33;20.57;;;16.77;;
17993;SDS011;9122;48.406;9.984;2023-03-01T15:07:18;19.53;;;16.43;;
17993;SDS011;9122;48.406;9.984;2023-03-01T15:10:03;18.80;;;16.10;;
17993;SDS011;9122;48.406;9.984;2023-03-01T15:12:50;20.30;;;17.27;;
17993;SDS011;9122;48.406;9.984;2023-03-01T15:15:45;20.10;;;16.20;;
17993;SDS011;9122;48.406;9.984;2023-03-01T15:18:32;19.60;;;16.47;;
17993;SDS011;9122;48.406;9.984;2023-03-01T15:21:22;21.53;;;17.07;;
17993;SDS011;9122;48.406;9.984;2023-03-01T15:27:03;21.63;;;15.40;;
17993;SDS011;9122;48.406;9.984;2023-03-01T15:29:51;18.17;;;15.20;;
17993;SDS011;9122;48.406;9.984;2023-03-01T15:32:41;17.87;;;15.20;;
17993;SDS011;9122;48.406;9.984;2023-03-01T15:35:39;18.37;;;15.53;;
17993;SDS011;9122;48.406;9.984;2023-03-01T15:41:47;19.90;;;16.63;;
17993;SDS011;9122;48.406;9.984;2023-03-01T15:44:36;18.27;;;15.73;;
17993;SDS011;9122;48.406;9.984;2023-03-01T15:47:29;18.50;;;14.83;;
17993;SDS011;9122;48.406;9.984;2023-03-01T15:50:25;21.23;;;16.20;;
17993;SDS011;9122;48.406;9.984;2023-03-01T15:53:16;19.17;;;15.47;;
17993;SDS011;9122;48.406;9.984;2023-03-01T15:56:04;24.43;;;16.03;;
17993;SDS011;9122;48.406;9.984;2023-03-01T15:58:51;20.00;;;15.30;;
17993;SDS011;9122;48.406;9.984;2023-03-01T16:01:35;21.07;;;17.07;;
17993;SDS011;9122;48.406;9.984;2023-03-01T16:04:20;21.33;;;17.93;;
17993;SDS011;9122;48.406;9.984;2023-03-01T16:07:06;19.33;;;15.43;;
17993;SDS011;9122;48.406;9.984;2023-03-01T16:09:56;17.30;;;15.10;;
17993;SDS011;9122;48.406;9.984;2023-03-01T16:12:40;19.40;;;15.03;;
17993;SDS011;9122;48.406;9.984;2023-03-01T16:15:26;20.33;;;14.77;;
17993;SDS011;9122;48.406;9.984;2023-03-01T16:18:12;17.13;;;14.60;;
17993;SDS011;9122;48.406;9.984;2023-03-01T16:20:57;19.33;;;14.80;;
17993;SDS011;9122;48.406;9.984;2023-03-01T16:23:42;19.23;;;14.50;;
17993;SDS011;9122;48.406;9.984;2023-03-01T16:26:27;21.13;;;15.80;;
17993;SDS011;9122;48.406;9.984;2023-03-01T16:29:12;17.60;;;14.63;;
17993;SDS011;9122;48.406;9.984;2023-03-01T16:32:00;19.07;;;15.07;;
17993;SDS011;9122;48.406;9.984;2023-03-01T16:34:45;16.73;;;14.43;;
17993;SDS011;9122;48.406;9.984;2023-03-01T16:37:33;16.73;;;14.23;;
17993;SDS011;9122;48.406;9.984;2023-03-01T16:40:25;19.27;;;13.93;;
17993;SDS011;9122;48.406;9.984;2023-03-01T16:43:11;17.30;;;14.20;;
17993;SDS011;9122;48.406;9.984;2023-03-01T16:45:56;17.47;;;14.97;;
17993;SDS011;9122;48.406;9.984;2023-03-01T16:48:42;14.83;;;13.20;;
17993;SDS011;9122;48.406;9.984;2023-03-01T16:51:27;17.17;;;13.33;;
17993;SDS011;9122;48.406;9.984;2023-03-01T16:54:13;16.20;;;14.23;;
17993;SDS011;9122;48.406;9.984;2023-03-01T16:56:58;19.00;;;14.97;;
17993;SDS011;9122;48.406;9.984;2023-03-01T16:59:52;19.27;;;14.43;;
17993;SDS011;9122;48.406;9.984;2023-03-01T17:02:37;19.07;;;14.60;;
17993;SDS011;9122;48.406;9.984;2023-03-01T17:05:22;17.10;;;14.37;;
17993;SDS011;9122;48.406;9.984;2023-03-01T17:08:08;16.53;;;13.47;;
17993;SDS011;9122;48.406;9.984;2023-03-01T17:10:52;15.90;;;14.00;;
17993;SDS011;9122;48.406;9.984;2023-03-01T17:13:45;14.77;;;13.20;;
17993;SDS011;9122;48.406;9.984;2023-03-01T17:16:31;15.33;;;12.27;;
17993;SDS011;9122;48.406;9.984;2023-03-01T17:19:15;17.53;;;14.27;;
17993;SDS011;9122;48.406;9.984;2023-03-01T17:22:01;15.80;;;13.43;;
17993;SDS011;9122;48.406;9.984;2023-03-01T17:24:46;16.93;;;13.97;;
17993;SDS011;9122;48.406;9.984;2023-03-01T17:27:31;16.47;;;13.57;;
17993;SDS011;9122;48.406;9.984;2023-03-01T17:30:18;16.60;;;13.20;;
17993;SDS011;9122;48.406;9.984;2023-03-01T17:33:02;16.90;;;14.27;;
17993;SDS011;9122;48.406;9.984;2023-03-01T17:35:47;14.63;;;13.10;;
17993;SDS011;9122;48.406;9.984;2023-03-01T17:38:34;18.17;;;13.63;;
17993;SDS011;9122;48.406;9.984;2023-03-01T17:41:19;15.50;;;13.90;;
17993;SDS011;9122;48.406;9.984;2023-03-01T17:44:06;17.83;;;13.40;;
17993;SDS011;9122;48.406;9.984;2023-03-01T17:46:51;17.13;;;13.40;;
17993;SDS011;9122;48.406;9.984;2023-03-01T17:49:36;17.77;;;13.57;;
17993;SDS011;9122;48.406;9.984;2023-03-01T17:52:20;15.83;;;12.50;;
17993;SDS011;9122;48.406;9.984;2023-03-01T17:55:06;18.27;;;14.07;;
17993;SDS011;9122;48.406;9.984;2023-03-01T17:57:51;17.90;;;14.07;;
17993;SDS011;9122;48.406;9.984;2023-03-01T18:00:38;16.70;;;14.17;;
17993;SDS011;9122;48.406;9.984;2023-03-01T18:03:23;17.97;;;14.50;;
17993;SDS011;9122;48.406;9.984;2023-03-01T18:06:14;16.60;;;14.33;;
17993;SDS011;9122;48.406;9.984;2023-03-01T18:09:01;20.17;;;15.20;;
17993;SDS011;9122;48.406;9.984;2023-03-01T18:11:48;16.77;;;13.57;;
17993;SDS011;9122;48.406;9.984;2023-03-01T18:14:33;16.40;;;13.40;;
17993;SDS011;9122;48.406;9.984;2023-03-01T18:17:18;19.67;;;15.07;;
17993;SDS011;9122;48.406;9.984;2023-03-01T18:20:04;17.97;;;14.53;;
17993;SDS011;9122;48.406;9.984;2023-03-01T18:22:49;21.00;;;15.93;;
17993;SDS011;9122;48.406;9.984;2023-03-01T18:25:38;18.80;;;14.27;;
17993;SDS011;9122;48.406;9.984;2023-03-01T18:28:23;20.10;;;14.63;;
17993;SDS011;9122;48.406;9.984;2023-03-01T18:31:09;19.93;;;16.33;;
17993;SDS011;9122;48.406;9.984;2023-03-01T18:33:54;20.63;;;16.03;;
17993;SDS011;9122;48.406;9.984;2023-03-01T18:36:42;18.87;;;15.90;;
17993;SDS011;9122;48.406;9.984;2023-03-01T18:39:26;17.53;;;15.50;;
17993;SDS011;9122;48.406;9.984;2023-03-01T18:42:12;16.43;;;14.40;;
17993;SDS011;9122;48.406;9.984;2023-03-01T18:45:02;18.63;;;14.10;;
17993;SDS011;9122;48.406;9.984;2023-03-01T18:47:47;18.57;;;15.43;;